LICD Información de aeropuertos

Información de pistas
Pista 08 Longitud 5906 ft Ancho 148 ft
Elevación 48 ft Umbral 0 ft Rumbo 81
Pista 26 Longitud 5906 ft Ancho 148 ft
Elevación 70 ft Umbral 0 ft Rumbo 261
Frecuencias
Tipo AFIS Nombre INFO Frequencia 122.1 MHZ
Radioayudas
Tipo VOR-DME Nombre Lampedusa Frequencia 108600 KHZ
Tipo NDB Nombre Lampedusa Frequencia 373 KHZ
Información meteorológica y NOTAM
ADDS - METARS form results

(0404 UTC 20 January 2021)
Data provider http://aviationweather.gov/metar/data/
 
METAR text: LICD 200350Z AUTO 19014KT 9999 FEW032/// 14/09 Q1028
Conditions at: LICD (LAMPEDUSA ISLAND, IT) observed 0350 UTC 20 January 2021
Temperature: 14.0°C (57°F)
Dewpoint: 9.0°C (48°F) [RH = 72%]
Pressure (altimeter): 30.35 inches Hg (1028.0 mb)
Winds: from the S (190 degrees) at 16 MPH (14 knots; 7.2 m/s)
Visibility: 6 or more miles (10+ km)
Ceiling: at least 12,000 feet AGL
Clouds: few clouds at 3200 feet AGL
Weather: no significant weather observed at this time

METAR text: LICD 200320Z AUTO 20013KT 9999 FEW031/// 14/09 Q1028
Conditions at: LICD (LAMPEDUSA ISLAND, IT) observed 0320 UTC 20 January 2021
Temperature: 14.0°C (57°F)
Dewpoint: 9.0°C (48°F) [RH = 72%]
Pressure (altimeter): 30.35 inches Hg (1028.0 mb)
Winds: from the SSW (200 degrees) at 15 MPH (13 knots; 6.7 m/s)
Visibility: 6 or more miles (10+ km)
Ceiling: at least 12,000 feet AGL
Clouds: few clouds at 3100 feet AGL
Weather: no significant weather observed at this time

Forecast for: LICD (LAMPEDUSA ISLAND, IT)
Text: TAF LICD 192300Z 2000/2024 20012KT 9999 SCT040
Forecast period: 0000 to 0800 UTC 20 January 2021
Forecast type: FROM: standard forecast or significant change
Winds: from the SSW (200 degrees) at 14 MPH (12 knots; 6.2 m/s)
Visibility: 6 or more miles (10+ km)
Ceiling: at least 12,000 feet AGL
Clouds: scattered clouds at 4000 feet AGL
Weather: no significant weather forecast for this period
Text: BECMG 2008/2010 22018G30KT
Forecast period: 0800 UTC 20 January 2021 to 0000 UTC 21 January 2021
Forecast type: BECOMING: Conditions expected to become as follows by 1000 UTC 20 January 2021
Winds: from the SW (220 degrees) at 21 MPH (18 knots; 9.3 m/s)
gusting to 34 MPH (30 knots; 15.4 m/s)
Visibility: 6 or more miles (10+ km)
Ceiling: at least 12,000 feet AGL
Clouds: scattered clouds at 4000 feet AGL
Weather: no significant weather forecast for this period